Aeroboteco Virtual Airlines! Uma nuvem a frente.



 INFORMAÇÕES METEOROLÓGICAS
METAR FOR TNCB
ADDS - METARS form results

(2359 UTC 08 March 2021)
Data provider http://aviationweather.gov/metar/data/
 
Forecast for: TNCB (BONAIRE/FLAMINGO, AN)
Text: TAF TNCB 082244Z 0900/1006 08014KT 9999 SCT018
Forecast period: 0000 UTC 09 March 2021 to 0600 UTC 10 March 2021
Forecast type: FROM: standard forecast or significant change
Winds: from the E (80 degrees) at 16 MPH (14 knots; 7.2 m/s)
Visibility: 6 or more miles (10+ km)
Ceiling: at least 12,000 feet AGL
Clouds: scattered clouds at 1800 feet AGL
Weather: no significant weather forecast for this period

 MAPA DO AEROPORTO

 INFORMAÇÕES DA PISTA
Pista 10 Tamanho da pista 9449 ft Largura da pista 148 ft
Elevação da pista 14 ft Ranhura da pista 0 ft Proa da pista 92
Pista 28 Tamanho da pista 9449 ft Largura da pista 148 ft
Elevação da pista 20 ft Ranhura da pista 0 ft Proa da pista 272

 FREQUÊNCIAS DO AEROPORTO
Tipo TWR Nome TWR Frequência 118.7 MHZ

 AUXÍLIOS DE NAVEGAÇÃO PRÓXIMOS AO AEROPORTO
Tipo NDB Nome Bonaire Frequência 321 KHZ